sensor_id;sensor_type;location;lat;lon;timestamp;P1;durP1;ratioP1;P2;durP2;ratioP2
53267;SDS011;39156;51.176;6.738;2023-06-01T00:01:53;38.53;;;36.33;;
53267;SDS011;39156;51.176;6.738;2023-06-01T00:04:18;34.70;;;32.80;;
53267;SDS011;39156;51.176;6.738;2023-06-01T00:06:44;34.83;;;32.93;;
53267;SDS011;39156;51.176;6.738;2023-06-01T00:09:10;34.90;;;32.90;;
53267;SDS011;39156;51.176;6.738;2023-06-01T00:11:36;37.60;;;35.30;;
53267;SDS011;39156;51.176;6.738;2023-06-01T00:14:02;38.87;;;36.50;;
53267;SDS011;39156;51.176;6.738;2023-06-01T00:16:27;36.97;;;34.77;;
53267;SDS011;39156;51.176;6.738;2023-06-01T00:18:56;36.05;;;33.95;;
53267;SDS011;39156;51.176;6.738;2023-06-01T00:21:25;35.03;;;33.03;;
53267;SDS011;39156;51.176;6.738;2023-06-01T00:23:52;35.65;;;33.55;;
53267;SDS011;39156;51.176;6.738;2023-06-01T00:26:18;35.23;;;33.30;;
53267;SDS011;39156;51.176;6.738;2023-06-01T00:28:43;35.07;;;33.07;;
53267;SDS011;39156;51.176;6.738;2023-06-01T00:31:09;36.13;;;34.13;;
53267;SDS011;39156;51.176;6.738;2023-06-01T00:33:35;36.20;;;34.10;;
53267;SDS011;39156;51.176;6.738;2023-06-01T00:36:01;35.47;;;33.47;;
53267;SDS011;39156;51.176;6.738;2023-06-01T00:38:26;36.83;;;34.73;;
53267;SDS011;39156;51.176;6.738;2023-06-01T00:40:52;38.00;;;35.60;;
53267;SDS011;39156;51.176;6.738;2023-06-01T00:43:18;38.97;;;36.60;;
53267;SDS011;39156;51.176;6.738;2023-06-01T00:45:44;38.37;;;35.90;;
53267;SDS011;39156;51.176;6.738;2023-06-01T00:48:10;38.07;;;35.97;;
53267;SDS011;39156;51.176;6.738;2023-06-01T00:50:37;37.60;;;35.47;;
53267;SDS011;39156;51.176;6.738;2023-06-01T00:53:03;37.07;;;34.77;;
53267;SDS011;39156;51.176;6.738;2023-06-01T00:55:32;36.63;;;34.60;;
53267;SDS011;39156;51.176;6.738;2023-06-01T01:00:26;37.67;;;35.50;;
53267;SDS011;39156;51.176;6.738;2023-06-01T01:02:52;36.30;;;34.08;;
53267;SDS011;39156;51.176;6.738;2023-06-01T01:05:18;36.20;;;33.87;;
53267;SDS011;39156;51.176;6.738;2023-06-01T01:10:32;36.75;;;34.33;;
53267;SDS011;39156;51.176;6.738;2023-06-01T01:16:06;37.87;;;35.57;;
53267;SDS011;39156;51.176;6.738;2023-06-01T01:18:42;38.88;;;36.47;;
53267;SDS011;39156;51.176;6.738;2023-06-01T01:21:19;37.60;;;35.42;;
53267;SDS011;39156;51.176;6.738;2023-06-01T01:23:55;37.70;;;35.58;;
53267;SDS011;39156;51.176;6.738;2023-06-01T01:29:54;37.05;;;34.55;;
53267;SDS011;39156;51.176;6.738;2023-06-01T01:32:30;37.88;;;35.35;;
53267;SDS011;39156;51.176;6.738;2023-06-01T01:34:58;38.15;;;35.95;;
53267;SDS011;39156;51.176;6.738;2023-06-01T01:37:25;38.35;;;35.97;;
53267;SDS011;39156;51.176;6.738;2023-06-01T01:39:51;38.00;;;35.80;;
53267;SDS011;39156;51.176;6.738;2023-06-01T01:42:17;39.65;;;36.92;;
53267;SDS011;39156;51.176;6.738;2023-06-01T01:44:43;38.50;;;36.20;;
53267;SDS011;39156;51.176;6.738;2023-06-01T01:47:18;37.97;;;35.65;;
53267;SDS011;39156;51.176;6.738;2023-06-01T01:49:56;39.60;;;37.30;;
53267;SDS011;39156;51.176;6.738;2023-06-01T01:52:32;38.92;;;36.70;;
53267;SDS011;39156;51.176;6.738;2023-06-01T01:55:03;38.67;;;36.28;;
53267;SDS011;39156;51.176;6.738;2023-06-01T01:57:32;36.72;;;34.55;;
53267;SDS011;39156;51.176;6.738;2023-06-01T01:59:59;37.42;;;35.10;;
53267;SDS011;39156;51.176;6.738;2023-06-01T02:02:27;37.78;;;35.58;;
53267;SDS011;39156;51.176;6.738;2023-06-01T02:04:53;40.25;;;37.88;;
53267;SDS011;39156;51.176;6.738;2023-06-01T02:07:19;38.63;;;36.13;;
53267;SDS011;39156;51.176;6.738;2023-06-01T02:09:44;38.08;;;35.85;;
53267;SDS011;39156;51.176;6.738;2023-06-01T02:12:10;38.92;;;36.13;;
53267;SDS011;39156;51.176;6.738;2023-06-01T02:14:36;37.90;;;35.60;;
53267;SDS011;39156;51.176;6.738;2023-06-01T02:17:02;39.63;;;37.33;;
53267;SDS011;39156;51.176;6.738;2023-06-01T02:19:28;38.75;;;36.35;;
53267;SDS011;39156;51.176;6.738;2023-06-01T02:21:54;37.80;;;35.47;;
53267;SDS011;39156;51.176;6.738;2023-06-01T02:24:20;37.88;;;35.72;;
53267;SDS011;39156;51.176;6.738;2023-06-01T02:26:46;39.28;;;36.63;;
53267;SDS011;39156;51.176;6.738;2023-06-01T02:29:18;38.85;;;36.55;;
53267;SDS011;39156;51.176;6.738;2023-06-01T02:31:47;38.95;;;36.60;;
53267;SDS011;39156;51.176;6.738;2023-06-01T02:34:14;39.03;;;36.72;;
53267;SDS011;39156;51.176;6.738;2023-06-01T02:36:40;40.45;;;37.55;;
53267;SDS011;39156;51.176;6.738;2023-06-01T02:39:06;37.23;;;34.63;;
53267;SDS011;39156;51.176;6.738;2023-06-01T02:41:32;40.47;;;37.58;;
53267;SDS011;39156;51.176;6.738;2023-06-01T02:43:57;40.75;;;37.90;;
53267;SDS011;39156;51.176;6.738;2023-06-01T02:46:23;41.13;;;38.35;;
53267;SDS011;39156;51.176;6.738;2023-06-01T02:48:49;41.67;;;39.13;;
53267;SDS011;39156;51.176;6.738;2023-06-01T02:53:43;42.67;;;39.67;;
53267;SDS011;39156;51.176;6.738;2023-06-01T02:56:10;40.22;;;37.47;;
53267;SDS011;39156;51.176;6.738;2023-06-01T02:58:36;41.30;;;38.42;;
53267;SDS011;39156;51.176;6.738;2023-06-01T03:01:02;47.28;;;43.92;;
53267;SDS011;39156;51.176;6.738;2023-06-01T03:03:28;42.50;;;39.97;;
53267;SDS011;39156;51.176;6.738;2023-06-01T03:05:53;41.83;;;39.22;;
53267;SDS011;39156;51.176;6.738;2023-06-01T03:08:20;41.38;;;38.65;;
53267;SDS011;39156;51.176;6.738;2023-06-01T03:10:46;40.95;;;38.35;;
53267;SDS011;39156;51.176;6.738;2023-06-01T03:13:12;38.33;;;35.92;;
53267;SDS011;39156;51.176;6.738;2023-06-01T03:15:38;41.47;;;38.80;;
53267;SDS011;39156;51.176;6.738;2023-06-01T03:18:04;40.10;;;37.65;;
53267;SDS011;39156;51.176;6.738;2023-06-01T03:20:36;40.17;;;37.58;;
53267;SDS011;39156;51.176;6.738;2023-06-01T03:23:02;44.63;;;41.65;;
53267;SDS011;39156;51.176;6.738;2023-06-01T03:25:28;39.72;;;37.28;;
53267;SDS011;39156;51.176;6.738;2023-06-01T03:27:54;41.10;;;38.35;;
53267;SDS011;39156;51.176;6.738;2023-06-01T03:30:19;43.50;;;40.80;;
53267;SDS011;39156;51.176;6.738;2023-06-01T03:32:46;43.55;;;40.15;;
53267;SDS011;39156;51.176;6.738;2023-06-01T03:35:12;44.08;;;41.17;;
53267;SDS011;39156;51.176;6.738;2023-06-01T03:37:38;42.38;;;39.63;;
53267;SDS011;39156;51.176;6.738;2023-06-01T03:40:07;42.85;;;40.10;;
53267;SDS011;39156;51.176;6.738;2023-06-01T03:42:40;45.40;;;42.15;;
53267;SDS011;39156;51.176;6.738;2023-06-01T03:45:11;44.95;;;41.80;;
53267;SDS011;39156;51.176;6.738;2023-06-01T03:47:38;44.20;;;41.30;;
53267;SDS011;39156;51.176;6.738;2023-06-01T03:50:06;45.03;;;41.80;;
53267;SDS011;39156;51.176;6.738;2023-06-01T03:52:34;44.17;;;41.15;;
53267;SDS011;39156;51.176;6.738;2023-06-01T03:55:01;44.15;;;40.90;;
53267;SDS011;39156;51.176;6.738;2023-06-01T03:57:35;44.60;;;41.65;;
53267;SDS011;39156;51.176;6.738;2023-06-01T04:00:05;43.65;;;40.45;;
53267;SDS011;39156;51.176;6.738;2023-06-01T04:02:47;46.30;;;43.08;;
53267;SDS011;39156;51.176;6.738;2023-06-01T04:05:14;45.17;;;42.38;;
53267;SDS011;39156;51.176;6.738;2023-06-01T04:07:45;45.33;;;42.38;;
53267;SDS011;39156;51.176;6.738;2023-06-01T04:10:16;44.63;;;41.47;;
53267;SDS011;39156;51.176;6.738;2023-06-01T04:12:45;44.20;;;41.20;;
53267;SDS011;39156;51.176;6.738;2023-06-01T04:15:17;45.45;;;42.13;;
53267;SDS011;39156;51.176;6.738;2023-06-01T04:17:44;44.92;;;41.72;;
53267;SDS011;39156;51.176;6.738;2023-06-01T04:20:11;45.97;;;42.67;;
53267;SDS011;39156;51.176;6.738;2023-06-01T04:22:39;47.83;;;44.22;;
53267;SDS011;39156;51.176;6.738;2023-06-01T04:25:06;48.10;;;44.67;;
53267;SDS011;39156;51.176;6.738;2023-06-01T04:27:36;48.95;;;45.05;;
53267;SDS011;39156;51.176;6.738;2023-06-01T04:30:09;50.25;;;46.22;;
53267;SDS011;39156;51.176;6.738;2023-06-01T04:32:37;48.25;;;44.58;;
53267;SDS011;39156;51.176;6.738;2023-06-01T04:35:03;51.15;;;47.20;;
53267;SDS011;39156;51.176;6.738;2023-06-01T04:37:32;50.83;;;46.80;;
53267;SDS011;39156;51.176;6.738;2023-06-01T04:40:04;50.22;;;46.42;;
53267;SDS011;39156;51.176;6.738;2023-06-01T04:42:38;51.15;;;47.10;;
53267;SDS011;39156;51.176;6.738;2023-06-01T04:45:06;53.10;;;48.92;;
53267;SDS011;39156;51.176;6.738;2023-06-01T04:47:35;51.63;;;47.70;;
53267;SDS011;39156;51.176;6.738;2023-06-01T04:50:08;53.67;;;49.67;;
53267;SDS011;39156;51.176;6.738;2023-06-01T04:52:39;54.40;;;49.70;;
53267;SDS011;39156;51.176;6.738;2023-06-01T04:55:05;49.88;;;46.17;;
53267;SDS011;39156;51.176;6.738;2023-06-01T04:57:36;53.72;;;49.72;;
53267;SDS011;39156;51.176;6.738;2023-06-01T05:00:04;53.28;;;49.10;;
53267;SDS011;39156;51.176;6.738;2023-06-01T05:02:36;52.90;;;49.00;;
53267;SDS011;39156;51.176;6.738;2023-06-01T05:05:03;53.80;;;49.80;;
53267;SDS011;39156;51.176;6.738;2023-06-01T05:07:30;51.83;;;47.83;;
53267;SDS011;39156;51.176;6.738;2023-06-01T05:09:56;50.97;;;47.22;;
53267;SDS011;39156;51.176;6.738;2023-06-01T05:12:22;52.78;;;48.83;;
53267;SDS011;39156;51.176;6.738;2023-06-01T05:14:48;54.17;;;50.30;;
53267;SDS011;39156;51.176;6.738;2023-06-01T05:17:14;52.80;;;48.88;;
53267;SDS011;39156;51.176;6.738;2023-06-01T05:19:40;50.97;;;46.92;;
53267;SDS011;39156;51.176;6.738;2023-06-01T05:22:06;55.40;;;51.38;;
53267;SDS011;39156;51.176;6.738;2023-06-01T05:24:31;51.15;;;47.10;;
53267;SDS011;39156;51.176;6.738;2023-06-01T05:26:57;52.40;;;48.75;;
53267;SDS011;39156;51.176;6.738;2023-06-01T05:29:23;49.17;;;45.78;;
53267;SDS011;39156;51.176;6.738;2023-06-01T05:31:49;50.30;;;46.47;;
53267;SDS011;39156;51.176;6.738;2023-06-01T05:34:15;50.58;;;46.42;;
53267;SDS011;39156;51.176;6.738;2023-06-01T05:36:41;51.63;;;47.85;;
53267;SDS011;39156;51.176;6.738;2023-06-01T05:39:07;53.05;;;49.00;;
53267;SDS011;39156;51.176;6.738;2023-06-01T05:41:33;54.15;;;49.95;;
53267;SDS011;39156;51.176;6.738;2023-06-01T05:43:58;56.30;;;51.55;;
53267;SDS011;39156;51.176;6.738;2023-06-01T05:46:24;58.80;;;54.13;;
53267;SDS011;39156;51.176;6.738;2023-06-01T05:48:50;57.72;;;53.35;;
53267;SDS011;39156;51.176;6.738;2023-06-01T05:51:16;60.53;;;55.70;;
53267;SDS011;39156;51.176;6.738;2023-06-01T05:53:42;59.40;;;54.20;;
53267;SDS011;39156;51.176;6.738;2023-06-01T05:56:08;62.33;;;57.60;;
53267;SDS011;39156;51.176;6.738;2023-06-01T05:58:34;60.13;;;55.45;;
53267;SDS011;39156;51.176;6.738;2023-06-01T06:00:59;58.65;;;54.08;;
53267;SDS011;39156;51.176;6.738;2023-06-01T06:03:25;58.10;;;53.30;;
53267;SDS011;39156;51.176;6.738;2023-06-01T06:05:51;60.45;;;55.30;;
53267;SDS011;39156;51.176;6.738;2023-06-01T06:08:17;60.05;;;54.95;;
53267;SDS011;39156;51.176;6.738;2023-06-01T06:10:43;63.33;;;58.20;;
53267;SDS011;39156;51.176;6.738;2023-06-01T06:13:09;63.33;;;57.85;;
53267;SDS011;39156;51.176;6.738;2023-06-01T06:15:35;60.05;;;55.35;;
53267;SDS011;39156;51.176;6.738;2023-06-01T06:18:01;62.03;;;56.97;;
53267;SDS011;39156;51.176;6.738;2023-06-01T06:20:27;55.97;;;51.53;;
53267;SDS011;39156;51.176;6.738;2023-06-01T06:22:53;53.17;;;48.72;;
53267;SDS011;39156;51.176;6.738;2023-06-01T06:25:19;58.38;;;53.35;;
53267;SDS011;39156;51.176;6.738;2023-06-01T06:27:45;55.38;;;51.15;;
53267;SDS011;39156;51.176;6.738;2023-06-01T06:30:12;54.67;;;50.67;;
53267;SDS011;39156;51.176;6.738;2023-06-01T06:32:37;60.88;;;56.30;;
53267;SDS011;39156;51.176;6.738;2023-06-01T06:35:03;62.45;;;57.15;;
53267;SDS011;39156;51.176;6.738;2023-06-01T06:37:31;65.38;;;59.92;;
53267;SDS011;39156;51.176;6.738;2023-06-01T06:39:57;68.40;;;62.42;;
53267;SDS011;39156;51.176;6.738;2023-06-01T06:42:23;67.35;;;61.80;;
53267;SDS011;39156;51.176;6.738;2023-06-01T06:44:49;68.60;;;63.08;;
53267;SDS011;39156;51.176;6.738;2023-06-01T06:47:15;62.73;;;57.63;;
53267;SDS011;39156;51.176;6.738;2023-06-01T06:49:44;57.03;;;52.38;;
53267;SDS011;39156;51.176;6.738;2023-06-01T06:52:10;57.57;;;52.80;;
53267;SDS011;39156;51.176;6.738;2023-06-01T06:54:38;53.03;;;49.23;;
53267;SDS011;39156;51.176;6.738;2023-06-01T06:57:05;50.42;;;46.72;;
53267;SDS011;39156;51.176;6.738;2023-06-01T06:59:32;52.08;;;46.95;;
53267;SDS011;39156;51.176;6.738;2023-06-01T07:01:58;50.08;;;45.90;;
53267;SDS011;39156;51.176;6.738;2023-06-01T07:04:23;52.83;;;48.87;;
53267;SDS011;39156;51.176;6.738;2023-06-01T07:06:49;55.60;;;51.17;;
53267;SDS011;39156;51.176;6.738;2023-06-01T07:09:16;56.97;;;52.63;;
53267;SDS011;39156;51.176;6.738;2023-06-01T07:11:42;56.37;;;52.23;;
53267;SDS011;39156;51.176;6.738;2023-06-01T07:14:08;55.73;;;51.33;;
53267;SDS011;39156;51.176;6.738;2023-06-01T07:16:33;47.83;;;44.33;;
53267;SDS011;39156;51.176;6.738;2023-06-01T07:18:59;45.20;;;41.67;;
53267;SDS011;39156;51.176;6.738;2023-06-01T07:21:25;45.97;;;42.70;;
53267;SDS011;39156;51.176;6.738;2023-06-01T07:23:51;48.40;;;44.80;;
53267;SDS011;39156;51.176;6.738;2023-06-01T07:26:16;48.00;;;44.43;;
53267;SDS011;39156;51.176;6.738;2023-06-01T07:28:42;48.37;;;44.97;;
53267;SDS011;39156;51.176;6.738;2023-06-01T07:31:08;50.00;;;46.13;;
53267;SDS011;39156;51.176;6.738;2023-06-01T07:33:34;45.72;;;42.35;;
53267;SDS011;39156;51.176;6.738;2023-06-01T07:36:01;47.47;;;43.95;;
53267;SDS011;39156;51.176;6.738;2023-06-01T07:38:28;47.45;;;43.92;;
53267;SDS011;39156;51.176;6.738;2023-06-01T07:40:54;49.95;;;46.30;;
53267;SDS011;39156;51.176;6.738;2023-06-01T07:43:19;46.50;;;43.22;;
53267;SDS011;39156;51.176;6.738;2023-06-01T07:45:45;46.55;;;43.08;;
53267;SDS011;39156;51.176;6.738;2023-06-01T07:48:11;44.60;;;41.40;;
53267;SDS011;39156;51.176;6.738;2023-06-01T07:50:36;44.53;;;41.25;;
53267;SDS011;39156;51.176;6.738;2023-06-01T07:53:02;43.80;;;40.45;;
53267;SDS011;39156;51.176;6.738;2023-06-01T07:55:28;44.55;;;41.35;;
53267;SDS011;39156;51.176;6.738;2023-06-01T07:57:54;46.47;;;43.00;;
53267;SDS011;39156;51.176;6.738;2023-06-01T08:00:20;48.63;;;45.03;;
53267;SDS011;39156;51.176;6.738;2023-06-01T08:02:47;44.28;;;41.22;;
53267;SDS011;39156;51.176;6.738;2023-06-01T08:05:12;44.65;;;41.47;;
53267;SDS011;39156;51.176;6.738;2023-06-01T08:07:39;44.63;;;41.53;;
53267;SDS011;39156;51.176;6.738;2023-06-01T08:10:07;45.00;;;41.70;;
53267;SDS011;39156;51.176;6.738;2023-06-01T08:12:33;45.80;;;42.60;;
53267;SDS011;39156;51.176;6.738;2023-06-01T08:15:00;49.45;;;45.85;;
53267;SDS011;39156;51.176;6.738;2023-06-01T08:17:28;48.47;;;44.72;;
53267;SDS011;39156;51.176;6.738;2023-06-01T08:19:55;45.92;;;42.53;;
53267;SDS011;39156;51.176;6.738;2023-06-01T08:22:22;44.50;;;41.42;;
53267;SDS011;39156;51.176;6.738;2023-06-01T08:24:49;51.00;;;47.15;;
53267;SDS011;39156;51.176;6.738;2023-06-01T08:27:25;50.00;;;45.63;;
53267;SDS011;39156;51.176;6.738;2023-06-01T08:32:18;49.03;;;44.95;;
53267;SDS011;39156;51.176;6.738;2023-06-01T08:37:11;48.97;;;45.17;;
53267;SDS011;39156;51.176;6.738;2023-06-01T08:39:38;47.35;;;44.00;;
53267;SDS011;39156;51.176;6.738;2023-06-01T08:44:46;46.83;;;43.60;;
53267;SDS011;39156;51.176;6.738;2023-06-01T08:47:12;45.60;;;42.28;;
53267;SDS011;39156;51.176;6.738;2023-06-01T08:49:39;47.97;;;44.33;;
53267;SDS011;39156;51.176;6.738;2023-06-01T08:52:08;46.25;;;42.90;;
53267;SDS011;39156;51.176;6.738;2023-06-01T08:54:38;48.30;;;44.63;;
53267;SDS011;39156;51.176;6.738;2023-06-01T08:59:35;48.35;;;44.75;;
53267;SDS011;39156;51.176;6.738;2023-06-01T09:02:01;47.70;;;44.10;;
53267;SDS011;39156;51.176;6.738;2023-06-01T09:04:27;48.65;;;45.08;;
53267;SDS011;39156;51.176;6.738;2023-06-01T09:06:57;45.55;;;41.95;;
53267;SDS011;39156;51.176;6.738;2023-06-01T09:12:12;45.50;;;42.38;;
53267;SDS011;39156;51.176;6.738;2023-06-01T09:15:07;46.75;;;43.15;;
53267;SDS011;39156;51.176;6.738;2023-06-01T09:17:48;45.78;;;42.22;;
53267;SDS011;39156;51.176;6.738;2023-06-01T09:22:52;45.15;;;41.85;;
53267;SDS011;39156;51.176;6.738;2023-06-01T09:25:26;44.28;;;41.22;;
53267;SDS011;39156;51.176;6.738;2023-06-01T09:27:57;45.55;;;42.35;;
53267;SDS011;39156;51.176;6.738;2023-06-01T09:30:25;44.55;;;41.45;;
53267;SDS011;39156;51.176;6.738;2023-06-01T09:33:07;44.05;;;40.60;;
53267;SDS011;39156;51.176;6.738;2023-06-01T09:35:43;45.22;;;41.80;;
53267;SDS011;39156;51.176;6.738;2023-06-01T09:38:20;42.80;;;39.78;;
53267;SDS011;39156;51.176;6.738;2023-06-01T09:40:55;42.75;;;39.63;;
53267;SDS011;39156;51.176;6.738;2023-06-01T09:43:29;44.72;;;41.55;;
53267;SDS011;39156;51.176;6.738;2023-06-01T09:46:10;41.83;;;39.03;;
53267;SDS011;39156;51.176;6.738;2023-06-01T09:48:39;43.20;;;40.00;;
53267;SDS011;39156;51.176;6.738;2023-06-01T09:51:20;45.72;;;42.33;;
53267;SDS011;39156;51.176;6.738;2023-06-01T09:53:54;45.72;;;42.03;;
53267;SDS011;39156;51.176;6.738;2023-06-01T09:56:19;42.40;;;39.50;;
53267;SDS011;39156;51.176;6.738;2023-06-01T09:58:48;43.30;;;39.90;;
53267;SDS011;39156;51.176;6.738;2023-06-01T10:01:23;43.88;;;40.67;;
53267;SDS011;39156;51.176;6.738;2023-06-01T10:03:49;43.10;;;39.75;;
53267;SDS011;39156;51.176;6.738;2023-06-01T10:06:17;43.25;;;39.95;;
53267;SDS011;39156;51.176;6.738;2023-06-01T10:08:43;40.95;;;37.78;;
53267;SDS011;39156;51.176;6.738;2023-06-01T10:11:10;42.35;;;39.45;;
53267;SDS011;39156;51.176;6.738;2023-06-01T10:13:35;41.35;;;38.50;;
53267;SDS011;39156;51.176;6.738;2023-06-01T10:16:01;41.40;;;38.38;;
53267;SDS011;39156;51.176;6.738;2023-06-01T10:20:54;40.23;;;37.30;;
53267;SDS011;39156;51.176;6.738;2023-06-01T10:23:21;40.38;;;37.58;;
53267;SDS011;39156;51.176;6.738;2023-06-01T10:25:47;41.77;;;38.87;;
53267;SDS011;39156;51.176;6.738;2023-06-01T10:28:15;38.58;;;35.95;;
53267;SDS011;39156;51.176;6.738;2023-06-01T10:30:42;36.95;;;34.25;;
53267;SDS011;39156;51.176;6.738;2023-06-01T10:33:07;39.13;;;36.23;;
53267;SDS011;39156;51.176;6.738;2023-06-01T10:40:42;38.78;;;36.03;;
53267;SDS011;39156;51.176;6.738;2023-06-01T10:46:00;41.75;;;38.88;;
53267;SDS011;39156;51.176;6.738;2023-06-01T10:51:22;41.08;;;38.08;;
53267;SDS011;39156;51.176;6.738;2023-06-01T10:53:50;40.00;;;36.90;;
53267;SDS011;39156;51.176;6.738;2023-06-01T10:56:24;41.65;;;38.75;;
53267;SDS011;39156;51.176;6.738;2023-06-01T11:01:37;39.90;;;37.03;;
53267;SDS011;39156;51.176;6.738;2023-06-01T11:04:05;39.95;;;36.97;;
53267;SDS011;39156;51.176;6.738;2023-06-01T11:06:32;41.53;;;38.63;;
53267;SDS011;39156;51.176;6.738;2023-06-01T11:09:05;38.53;;;35.35;;
53267;SDS011;39156;51.176;6.738;2023-06-01T11:11:55;41.72;;;38.47;;
53267;SDS011;39156;51.176;6.738;2023-06-01T11:16:48;37.67;;;35.08;;
53267;SDS011;39156;51.176;6.738;2023-06-01T11:19:25;39.97;;;37.08;;
53267;SDS011;39156;51.176;6.738;2023-06-01T11:21:56;37.65;;;35.03;;
53267;SDS011;39156;51.176;6.738;2023-06-01T11:24:32;38.50;;;35.85;;
53267;SDS011;39156;51.176;6.738;2023-06-01T11:27:05;41.15;;;38.28;;
53267;SDS011;39156;51.176;6.738;2023-06-01T11:29:33;39.47;;;36.60;;
53267;SDS011;39156;51.176;6.738;2023-06-01T11:31:59;39.65;;;36.88;;
53267;SDS011;39156;51.176;6.738;2023-06-01T11:36:59;38.38;;;35.47;;
53267;SDS011;39156;51.176;6.738;2023-06-01T11:39:25;40.22;;;37.30;;
53267;SDS011;39156;51.176;6.738;2023-06-01T11:44:36;41.00;;;38.00;;
53267;SDS011;39156;51.176;6.738;2023-06-01T11:47:03;40.45;;;37.53;;
53267;SDS011;39156;51.176;6.738;2023-06-01T11:49:31;38.63;;;35.55;;
53267;SDS011;39156;51.176;6.738;2023-06-01T11:52:08;40.55;;;37.55;;
53267;SDS011;39156;51.176;6.738;2023-06-01T11:54:34;40.58;;;37.63;;
53267;SDS011;39156;51.176;6.738;2023-06-01T11:57:01;39.45;;;36.67;;
53267;SDS011;39156;51.176;6.738;2023-06-01T11:59:50;39.95;;;36.65;;
53267;SDS011;39156;51.176;6.738;2023-06-01T12:02:19;41.25;;;38.47;;
53267;SDS011;39156;51.176;6.738;2023-06-01T12:05:01;39.10;;;36.22;;
53267;SDS011;39156;51.176;6.738;2023-06-01T12:07:45;41.33;;;38.03;;
53267;SDS011;39156;51.176;6.738;2023-06-01T12:10:19;39.85;;;36.95;;
53267;SDS011;39156;51.176;6.738;2023-06-01T12:12:46;39.78;;;36.63;;
53267;SDS011;39156;51.176;6.738;2023-06-01T12:15:16;37.75;;;35.13;;
53267;SDS011;39156;51.176;6.738;2023-06-01T12:20:29;39.10;;;35.95;;
53267;SDS011;39156;51.176;6.738;2023-06-01T12:22:57;39.20;;;36.30;;
53267;SDS011;39156;51.176;6.738;2023-06-01T12:25:30;39.90;;;36.65;;
53267;SDS011;39156;51.176;6.738;2023-06-01T12:28:08;41.30;;;38.30;;
53267;SDS011;39156;51.176;6.738;2023-06-01T12:30:35;41.78;;;38.60;;
53267;SDS011;39156;51.176;6.738;2023-06-01T12:33:01;38.75;;;35.85;;
53267;SDS011;39156;51.176;6.738;2023-06-01T12:35:29;40.13;;;37.30;;
53267;SDS011;39156;51.176;6.738;2023-06-01T12:38:02;39.70;;;36.60;;
53267;SDS011;39156;51.176;6.738;2023-06-01T12:40:33;40.40;;;37.22;;
53267;SDS011;39156;51.176;6.738;2023-06-01T12:43:00;39.92;;;36.05;;
53267;SDS011;39156;51.176;6.738;2023-06-01T12:45:33;39.00;;;36.17;;
53267;SDS011;39156;51.176;6.738;2023-06-01T12:48:03;38.28;;;35.42;;
53267;SDS011;39156;51.176;6.738;2023-06-01T12:50:30;40.83;;;38.03;;
53267;SDS011;39156;51.176;6.738;2023-06-01T12:52:56;37.65;;;35.15;;
53267;SDS011;39156;51.176;6.738;2023-06-01T12:55:22;36.97;;;34.10;;
53267;SDS011;39156;51.176;6.738;2023-06-01T12:57:54;38.45;;;35.70;;
53267;SDS011;39156;51.176;6.738;2023-06-01T13:00:20;38.50;;;35.60;;
53267;SDS011;39156;51.176;6.738;2023-06-01T13:02:47;38.38;;;35.85;;
53267;SDS011;39156;51.176;6.738;2023-06-01T13:05:18;39.75;;;36.22;;
53267;SDS011;39156;51.176;6.738;2023-06-01T13:07:44;42.72;;;39.85;;
53267;SDS011;39156;51.176;6.738;2023-06-01T13:10:10;39.80;;;36.90;;
53267;SDS011;39156;51.176;6.738;2023-06-01T13:12:38;40.05;;;37.17;;
53267;SDS011;39156;51.176;6.738;2023-06-01T13:15:05;39.63;;;36.67;;
53267;SDS011;39156;51.176;6.738;2023-06-01T13:17:32;39.28;;;36.45;;
53267;SDS011;39156;51.176;6.738;2023-06-01T13:19:58;40.33;;;37.45;;
53267;SDS011;39156;51.176;6.738;2023-06-01T13:22:24;38.97;;;36.17;;
53267;SDS011;39156;51.176;6.738;2023-06-01T13:24:50;39.08;;;36.25;;
53267;SDS011;39156;51.176;6.738;2023-06-01T13:27:16;39.30;;;36.47;;
53267;SDS011;39156;51.176;6.738;2023-06-01T13:29:41;39.73;;;37.10;;
53267;SDS011;39156;51.176;6.738;2023-06-01T13:32:07;39.88;;;36.95;;
53267;SDS011;39156;51.176;6.738;2023-06-01T13:34:33;39.38;;;36.45;;
53267;SDS011;39156;51.176;6.738;2023-06-01T13:37:00;41.30;;;38.22;;
53267;SDS011;39156;51.176;6.738;2023-06-01T13:39:26;39.00;;;36.55;;
53267;SDS011;39156;51.176;6.738;2023-06-01T13:41:52;39.00;;;36.25;;
53267;SDS011;39156;51.176;6.738;2023-06-01T13:44:18;39.33;;;36.50;;
53267;SDS011;39156;51.176;6.738;2023-06-01T13:46:44;38.97;;;36.05;;
53267;SDS011;39156;51.176;6.738;2023-06-01T13:49:10;39.33;;;36.57;;
53267;SDS011;39156;51.176;6.738;2023-06-01T13:51:36;39.60;;;36.25;;
53267;SDS011;39156;51.176;6.738;2023-06-01T13:54:04;38.45;;;35.75;;
53267;SDS011;39156;51.176;6.738;2023-06-01T13:56:30;40.40;;;37.63;;
53267;SDS011;39156;51.176;6.738;2023-06-01T13:58:56;41.40;;;38.28;;
53267;SDS011;39156;51.176;6.738;2023-06-01T14:01:22;39.47;;;36.60;;
53267;SDS011;39156;51.176;6.738;2023-06-01T14:03:48;39.75;;;37.00;;
53267;SDS011;39156;51.176;6.738;2023-06-01T14:06:14;38.70;;;35.57;;
53267;SDS011;39156;51.176;6.738;2023-06-01T14:08:40;38.15;;;35.17;;
53267;SDS011;39156;51.176;6.738;2023-06-01T14:11:05;37.95;;;35.20;;
53267;SDS011;39156;51.176;6.738;2023-06-01T14:13:31;35.83;;;33.20;;
53267;SDS011;39156;51.176;6.738;2023-06-01T14:15:57;39.33;;;35.33;;
53267;SDS011;39156;51.176;6.738;2023-06-01T14:18:22;36.47;;;34.07;;
53267;SDS011;39156;51.176;6.738;2023-06-01T14:20:48;36.87;;;34.23;;
53267;SDS011;39156;51.176;6.738;2023-06-01T14:23:14;38.22;;;35.13;;
53267;SDS011;39156;51.176;6.738;2023-06-01T14:25:40;36.57;;;34.07;;
53267;SDS011;39156;51.176;6.738;2023-06-01T14:28:06;38.40;;;35.72;;
53267;SDS011;39156;51.176;6.738;2023-06-01T14:30:32;37.42;;;34.92;;
53267;SDS011;39156;51.176;6.738;2023-06-01T14:32:57;37.20;;;34.70;;
53267;SDS011;39156;51.176;6.738;2023-06-01T14:35:23;38.00;;;35.43;;
53267;SDS011;39156;51.176;6.738;2023-06-01T14:37:51;40.05;;;37.28;;
53267;SDS011;39156;51.176;6.738;2023-06-01T14:40:17;38.50;;;35.67;;
53267;SDS011;39156;51.176;6.738;2023-06-01T14:42:43;36.75;;;33.90;;
53267;SDS011;39156;51.176;6.738;2023-06-01T14:45:09;36.35;;;34.08;;
53267;SDS011;39156;51.176;6.738;2023-06-01T14:50:02;35.60;;;33.35;;
53267;SDS011;39156;51.176;6.738;2023-06-01T14:52:28;37.53;;;34.58;;
53267;SDS011;39156;51.176;6.738;2023-06-01T14:54:54;39.35;;;36.70;;
53267;SDS011;39156;51.176;6.738;2023-06-01T14:57:20;38.42;;;35.53;;
53267;SDS011;39156;51.176;6.738;2023-06-01T14:59:46;40.17;;;37.47;;
53267;SDS011;39156;51.176;6.738;2023-06-01T15:02:12;37.33;;;34.92;;
53267;SDS011;39156;51.176;6.738;2023-06-01T15:04:38;36.97;;;34.58;;
53267;SDS011;39156;51.176;6.738;2023-06-01T15:07:03;38.23;;;35.53;;
53267;SDS011;39156;51.176;6.738;2023-06-01T15:09:29;36.05;;;33.42;;
53267;SDS011;39156;51.176;6.738;2023-06-01T15:11:55;37.90;;;35.40;;
53267;SDS011;39156;51.176;6.738;2023-06-01T15:14:21;37.60;;;35.20;;
53267;SDS011;39156;51.176;6.738;2023-06-01T15:16:47;37.60;;;35.13;;
53267;SDS011;39156;51.176;6.738;2023-06-01T15:19:13;36.60;;;34.03;;
53267;SDS011;39156;51.176;6.738;2023-06-01T15:21:39;36.93;;;34.23;;
53267;SDS011;39156;51.176;6.738;2023-06-01T15:24:04;35.20;;;33.03;;